sensor_id;sensor_type;location;lat;lon;timestamp;pressure;altitude;pressure_sealevel;temperature;humidity
70555;BME280;58104;52.744;15.242;2023-04-07T00:01:38;101247.26;;;18.97;39.02
70555;BME280;58104;52.744;15.242;2023-04-07T00:04:03;101247.91;;;18.95;39.04
70555;BME280;58104;52.744;15.242;2023-04-07T00:06:29;101249.36;;;18.88;39.06
70555;BME280;58104;52.744;15.242;2023-04-07T00:08:54;101243.61;;;18.94;39.28
70555;BME280;58104;52.744;15.242;2023-04-07T00:11:20;101239.00;;;18.93;39.30
70555;BME280;58104;52.744;15.242;2023-04-07T00:13:45;101237.29;;;18.92;39.46
70555;BME280;58104;52.744;15.242;2023-04-07T00:16:10;101236.51;;;18.95;39.35
70555;BME280;58104;52.744;15.242;2023-04-07T00:18:36;101236.53;;;18.92;39.69
70555;BME280;58104;52.744;15.242;2023-04-07T00:21:01;101238.33;;;18.91;39.82
70555;BME280;58104;52.744;15.242;2023-04-07T00:23:27;101236.94;;;19.00;39.86
70555;BME280;58104;52.744;15.242;2023-04-07T00:25:52;101235.06;;;19.01;40.20
70555;BME280;58104;52.744;15.242;2023-04-07T00:28:17;101233.66;;;18.96;40.29
70555;BME280;58104;52.744;15.242;2023-04-07T00:30:43;101233.51;;;18.90;40.31
70555;BME280;58104;52.744;15.242;2023-04-07T00:33:08;101234.42;;;18.99;40.35
70555;BME280;58104;52.744;15.242;2023-04-07T00:35:34;101235.12;;;18.87;40.54
70555;BME280;58104;52.744;15.242;2023-04-07T00:37:59;101233.13;;;19.00;40.51
70555;BME280;58104;52.744;15.242;2023-04-07T00:40:25;101229.18;;;18.91;40.66
70555;BME280;58104;52.744;15.242;2023-04-07T00:42:51;101227.62;;;18.97;40.64
70555;BME280;58104;52.744;15.242;2023-04-07T00:45:15;101228.03;;;18.92;40.77
70555;BME280;58104;52.744;15.242;2023-04-07T00:47:41;101226.02;;;18.96;40.86
70555;BME280;58104;52.744;15.242;2023-04-07T00:50:07;101225.43;;;18.96;40.99
70555;BME280;58104;52.744;15.242;2023-04-07T00:52:32;101219.77;;;18.94;41.02
70555;BME280;58104;52.744;15.242;2023-04-07T00:54:58;101221.92;;;18.92;40.93
70555;BME280;58104;52.744;15.242;2023-04-07T00:57:23;101217.13;;;18.97;40.96
70555;BME280;58104;52.744;15.242;2023-04-07T00:59:49;101210.85;;;18.90;41.15
70555;BME280;58104;52.744;15.242;2023-04-07T01:02:16;101207.93;;;18.99;41.04
70555;BME280;58104;52.744;15.242;2023-04-07T01:04:46;101208.61;;;18.99;41.02
70555;BME280;58104;52.744;15.242;2023-04-07T01:07:10;101206.78;;;18.97;40.97
70555;BME280;58104;52.744;15.242;2023-04-07T01:09:36;101205.71;;;18.87;41.01
70555;BME280;58104;52.744;15.242;2023-04-07T01:12:01;101204.25;;;18.98;40.93
70555;BME280;58104;52.744;15.242;2023-04-07T01:14:22;101205.78;;;18.98;40.92
70555;BME280;58104;52.744;15.242;2023-04-07T01:16:49;101203.50;;;18.93;40.83
70555;BME280;58104;52.744;15.242;2023-04-07T01:19:15;101202.49;;;18.94;40.98
70555;BME280;58104;52.744;15.242;2023-04-07T01:21:39;101202.09;;;18.93;41.04
70555;BME280;58104;52.744;15.242;2023-04-07T01:26:29;101201.35;;;18.95;41.27
70555;BME280;58104;52.744;15.242;2023-04-07T01:31:19;101195.17;;;18.94;41.36
70555;BME280;58104;52.744;15.242;2023-04-07T01:33:45;101192.56;;;18.97;41.40
70555;BME280;58104;52.744;15.242;2023-04-07T01:36:09;101188.43;;;18.94;41.49
70555;BME280;58104;52.744;15.242;2023-04-07T01:38:34;101183.75;;;18.91;41.51
70555;BME280;58104;52.744;15.242;2023-04-07T01:41:01;101184.11;;;18.96;41.55
70555;BME280;58104;52.744;15.242;2023-04-07T01:43:25;101184.28;;;18.89;41.61
70555;BME280;58104;52.744;15.242;2023-04-07T01:45:51;101184.52;;;18.88;41.67
70555;BME280;58104;52.744;15.242;2023-04-07T01:48:16;101181.71;;;18.93;41.48
70555;BME280;58104;52.744;15.242;2023-04-07T01:50:42;101179.06;;;18.92;41.50
70555;BME280;58104;52.744;15.242;2023-04-07T01:53:07;101177.22;;;18.98;41.53
70555;BME280;58104;52.744;15.242;2023-04-07T01:55:32;101179.53;;;18.90;41.93
70555;BME280;58104;52.744;15.242;2023-04-07T01:57:57;101177.83;;;18.91;42.00
70555;BME280;58104;52.744;15.242;2023-04-07T02:00:22;101178.51;;;18.90;42.02
70555;BME280;58104;52.744;15.242;2023-04-07T02:02:54;101176.91;;;18.92;42.01
70555;BME280;58104;52.744;15.242;2023-04-07T02:05:18;101176.01;;;18.91;42.06
70555;BME280;58104;52.744;15.242;2023-04-07T02:07:44;101175.71;;;18.94;42.06
70555;BME280;58104;52.744;15.242;2023-04-07T02:10:07;101174.25;;;18.89;42.16
70555;BME280;58104;52.744;15.242;2023-04-07T02:12:30;101173.08;;;18.83;42.25
70555;BME280;58104;52.744;15.242;2023-04-07T02:14:55;101171.82;;;18.89;42.32
70555;BME280;58104;52.744;15.242;2023-04-07T02:17:20;101172.32;;;18.91;42.32
70555;BME280;58104;52.744;15.242;2023-04-07T02:19:45;101171.01;;;18.96;42.30
70555;BME280;58104;52.744;15.242;2023-04-07T02:22:11;101173.56;;;18.92;42.67
70555;BME280;58104;52.744;15.242;2023-04-07T02:24:35;101168.59;;;18.89;42.59
70555;BME280;58104;52.744;15.242;2023-04-07T02:27:01;101173.52;;;18.89;42.60
70555;BME280;58104;52.744;15.242;2023-04-07T02:29:27;101173.10;;;18.89;42.63
70555;BME280;58104;52.744;15.242;2023-04-07T02:31:52;101169.49;;;18.88;42.57
70555;BME280;58104;52.744;15.242;2023-04-07T02:34:18;101167.60;;;18.97;42.38
70555;BME280;58104;52.744;15.242;2023-04-07T02:36:43;101169.73;;;18.99;42.41
70555;BME280;58104;52.744;15.242;2023-04-07T02:39:08;101168.23;;;18.85;42.46
70555;BME280;58104;52.744;15.242;2023-04-07T02:41:34;101163.41;;;18.96;42.30
70555;BME280;58104;52.744;15.242;2023-04-07T02:43:59;101164.45;;;18.96;42.27
70555;BME280;58104;52.744;15.242;2023-04-07T02:46:25;101165.42;;;18.98;42.46
70555;BME280;58104;52.744;15.242;2023-04-07T02:48:50;101160.41;;;18.96;42.49
70555;BME280;58104;52.744;15.242;2023-04-07T02:51:15;101157.52;;;18.96;42.54
70555;BME280;58104;52.744;15.242;2023-04-07T02:53:41;101158.24;;;19.06;42.41
70555;BME280;58104;52.744;15.242;2023-04-07T02:56:06;101158.44;;;18.90;42.42
70555;BME280;58104;52.744;15.242;2023-04-07T02:58:31;101155.16;;;18.99;42.41
70555;BME280;58104;52.744;15.242;2023-04-07T03:00:57;101156.18;;;18.99;42.40
70555;BME280;58104;52.744;15.242;2023-04-07T03:03:22;101152.83;;;18.93;42.54
70555;BME280;58104;52.744;15.242;2023-04-07T03:05:48;101146.71;;;19.00;42.44
70555;BME280;58104;52.744;15.242;2023-04-07T03:08:13;101145.02;;;18.97;42.45
70555;BME280;58104;52.744;15.242;2023-04-07T03:10:38;101143.09;;;19.00;42.57
70555;BME280;58104;52.744;15.242;2023-04-07T03:13:04;101139.38;;;19.00;42.51
70555;BME280;58104;52.744;15.242;2023-04-07T03:15:29;101139.87;;;18.88;42.61
70555;BME280;58104;52.744;15.242;2023-04-07T03:17:55;101138.46;;;18.99;42.68
70555;BME280;58104;52.744;15.242;2023-04-07T03:20:20;101137.68;;;18.96;42.69
70555;BME280;58104;52.744;15.242;2023-04-07T03:22:45;101137.26;;;18.94;43.06
70555;BME280;58104;52.744;15.242;2023-04-07T03:25:10;101139.30;;;18.97;43.53
70555;BME280;58104;52.744;15.242;2023-04-07T03:27:36;101140.15;;;19.04;44.34
70555;BME280;58104;52.744;15.242;2023-04-07T03:30:02;101139.50;;;19.08;44.35
70555;BME280;58104;52.744;15.242;2023-04-07T03:32:27;101134.94;;;19.05;43.87
70555;BME280;58104;52.744;15.242;2023-04-07T03:34:52;101132.78;;;19.00;43.56
70555;BME280;58104;52.744;15.242;2023-04-07T03:37:17;101132.60;;;19.09;43.01
70555;BME280;58104;52.744;15.242;2023-04-07T03:39:42;101130.52;;;18.97;42.78
70555;BME280;58104;52.744;15.242;2023-04-07T03:42:08;101131.16;;;19.03;42.33
70555;BME280;58104;52.744;15.242;2023-04-07T03:44:33;101130.13;;;18.92;42.09
70555;BME280;58104;52.744;15.242;2023-04-07T03:46:59;101129.79;;;18.85;41.85
70555;BME280;58104;52.744;15.242;2023-04-07T03:49:24;101131.97;;;18.92;41.49
70555;BME280;58104;52.744;15.242;2023-04-07T03:51:49;101133.83;;;18.90;41.24
70555;BME280;58104;52.744;15.242;2023-04-07T03:54:15;101132.59;;;18.90;41.03
70555;BME280;58104;52.744;15.242;2023-04-07T03:56:40;101133.14;;;18.88;40.04
70555;BME280;58104;52.744;15.242;2023-04-07T03:59:06;101132.28;;;18.88;40.48
70555;BME280;58104;52.744;15.242;2023-04-07T04:01:32;101134.35;;;18.97;40.36
70555;BME280;58104;52.744;15.242;2023-04-07T04:03:57;101134.27;;;18.99;37.13
70555;BME280;58104;52.744;15.242;2023-04-07T04:06:23;101136.25;;;18.69;34.47
70555;BME280;58104;52.744;15.242;2023-04-07T04:08:48;101136.76;;;18.55;33.67
70555;BME280;58104;52.744;15.242;2023-04-07T04:11:14;101134.05;;;18.49;33.74
70555;BME280;58104;52.744;15.242;2023-04-07T04:13:39;101132.56;;;18.48;33.32
70555;BME280;58104;52.744;15.242;2023-04-07T04:16:06;101133.57;;;18.39;33.31
70555;BME280;58104;52.744;15.242;2023-04-07T04:18:30;101134.46;;;18.15;33.23
70555;BME280;58104;52.744;15.242;2023-04-07T04:20:56;101136.83;;;17.97;33.20
70555;BME280;58104;52.744;15.242;2023-04-07T04:23:21;101132.68;;;18.14;32.97
70555;BME280;58104;52.744;15.242;2023-04-07T04:25:46;101133.16;;;18.15;32.45
70555;BME280;58104;52.744;15.242;2023-04-07T04:28:12;101130.58;;;18.01;32.39
70555;BME280;58104;52.744;15.242;2023-04-07T04:30:37;101133.13;;;17.98;32.32
70555;BME280;58104;52.744;15.242;2023-04-07T04:33:03;101132.20;;;18.03;31.94
70555;BME280;58104;52.744;15.242;2023-04-07T04:35:28;101130.36;;;18.01;32.09
70555;BME280;58104;52.744;15.242;2023-04-07T04:37:54;101129.81;;;17.81;31.96
70555;BME280;58104;52.744;15.242;2023-04-07T04:40:20;101128.16;;;18.02;32.20
70555;BME280;58104;52.744;15.242;2023-04-07T04:42:45;101128.38;;;17.74;31.70
70555;BME280;58104;52.744;15.242;2023-04-07T04:45:10;101131.22;;;17.45;33.13
70555;BME280;58104;52.744;15.242;2023-04-07T04:47:35;101128.50;;;17.32;33.11
70555;BME280;58104;52.744;15.242;2023-04-07T04:50:01;101129.30;;;17.22;32.81
70555;BME280;58104;52.744;15.242;2023-04-07T04:52:26;101130.12;;;17.23;32.43
70555;BME280;58104;52.744;15.242;2023-04-07T04:54:51;101130.29;;;17.23;32.40
70555;BME280;58104;52.744;15.242;2023-04-07T04:57:17;101130.56;;;17.17;33.46
70555;BME280;58104;52.744;15.242;2023-04-07T04:59:42;101129.51;;;17.14;34.31
70555;BME280;58104;52.744;15.242;2023-04-07T05:02:08;101127.20;;;17.44;34.12
70555;BME280;58104;52.744;15.242;2023-04-07T05:04:34;101128.04;;;17.28;34.44
70555;BME280;58104;52.744;15.242;2023-04-07T05:06:59;101125.22;;;17.14;34.66
70555;BME280;58104;52.744;15.242;2023-04-07T05:09:24;101119.92;;;17.08;34.23
70555;BME280;58104;52.744;15.242;2023-04-07T05:11:50;101118.66;;;16.89;33.76
70555;BME280;58104;52.744;15.242;2023-04-07T05:14:16;101120.42;;;16.89;33.38
70555;BME280;58104;52.744;15.242;2023-04-07T05:16:41;101119.48;;;16.72;33.40
70555;BME280;58104;52.744;15.242;2023-04-07T05:19:06;101121.59;;;16.61;33.13
70555;BME280;58104;52.744;15.242;2023-04-07T05:21:32;101116.08;;;16.56;33.09
70555;BME280;58104;52.744;15.242;2023-04-07T05:23:57;101117.95;;;16.67;32.31
70555;BME280;58104;52.744;15.242;2023-04-07T05:26:22;101120.66;;;16.72;32.43
70555;BME280;58104;52.744;15.242;2023-04-07T05:28:47;101123.18;;;16.82;32.26
70555;BME280;58104;52.744;15.242;2023-04-07T05:31:13;101126.48;;;16.71;32.08
70555;BME280;58104;52.744;15.242;2023-04-07T05:33:38;101128.36;;;16.76;32.00
70555;BME280;58104;52.744;15.242;2023-04-07T05:36:04;101124.56;;;16.59;32.21
70555;BME280;58104;52.744;15.242;2023-04-07T05:38:29;101125.80;;;16.46;32.00
70555;BME280;58104;52.744;15.242;2023-04-07T05:40:55;101130.83;;;16.48;32.10
70555;BME280;58104;52.744;15.242;2023-04-07T05:43:21;101130.46;;;16.60;32.12
70555;BME280;58104;52.744;15.242;2023-04-07T05:45:46;101133.34;;;16.60;31.71
70555;BME280;58104;52.744;15.242;2023-04-07T05:48:12;101134.72;;;16.65;31.87
70555;BME280;58104;52.744;15.242;2023-04-07T05:50:37;101136.90;;;16.62;31.97
70555;BME280;58104;52.744;15.242;2023-04-07T05:53:02;101134.50;;;16.72;31.85
70555;BME280;58104;52.744;15.242;2023-04-07T05:55:28;101133.32;;;16.61;31.62
70555;BME280;58104;52.744;15.242;2023-04-07T05:57:54;101136.21;;;16.65;31.70
70555;BME280;58104;52.744;15.242;2023-04-07T06:00:19;101135.40;;;16.50;31.75
70555;BME280;58104;52.744;15.242;2023-04-07T06:02:44;101136.28;;;16.57;31.85
70555;BME280;58104;52.744;15.242;2023-04-07T06:05:10;101135.21;;;16.53;31.91
70555;BME280;58104;52.744;15.242;2023-04-07T06:07:35;101135.61;;;16.58;31.65
70555;BME280;58104;52.744;15.242;2023-04-07T06:10:01;101134.58;;;16.61;31.83
70555;BME280;58104;52.744;15.242;2023-04-07T06:12:26;101134.47;;;16.51;31.76
70555;BME280;58104;52.744;15.242;2023-04-07T06:14:53;101135.20;;;16.50;31.82
70555;BME280;58104;52.744;15.242;2023-04-07T06:17:17;101134.36;;;16.63;31.76
70555;BME280;58104;52.744;15.242;2023-04-07T06:19:43;101137.65;;;16.57;31.66
70555;BME280;58104;52.744;15.242;2023-04-07T06:22:09;101139.36;;;16.65;31.61
70555;BME280;58104;52.744;15.242;2023-04-07T06:24:34;101139.92;;;16.55;31.74
70555;BME280;58104;52.744;15.242;2023-04-07T06:27:00;101138.50;;;16.35;32.09
70555;BME280;58104;52.744;15.242;2023-04-07T06:29:25;101139.53;;;16.46;31.84
70555;BME280;58104;52.744;15.242;2023-04-07T06:31:50;101139.79;;;16.56;31.85
70555;BME280;58104;52.744;15.242;2023-04-07T06:34:16;101139.08;;;16.43;32.05
70555;BME280;58104;52.744;15.242;2023-04-07T06:36:42;101138.87;;;16.49;31.99
70555;BME280;58104;52.744;15.242;2023-04-07T06:39:07;101135.76;;;16.47;32.22
70555;BME280;58104;52.744;15.242;2023-04-07T06:41:33;101138.55;;;16.09;32.84
70555;BME280;58104;52.744;15.242;2023-04-07T06:43:59;101137.40;;;16.26;32.63
70555;BME280;58104;52.744;15.242;2023-04-07T06:46:24;101138.42;;;16.32;32.55
70555;BME280;58104;52.744;15.242;2023-04-07T06:48:50;101135.16;;;16.54;32.40
70555;BME280;58104;52.744;15.242;2023-04-07T06:51:16;101137.80;;;16.51;32.53
70555;BME280;58104;52.744;15.242;2023-04-07T06:53:42;101138.12;;;16.48;32.46
70555;BME280;58104;52.744;15.242;2023-04-07T06:56:09;101137.58;;;16.53;32.56
70555;BME280;58104;52.744;15.242;2023-04-07T06:58:32;101139.26;;;16.44;32.42
70555;BME280;58104;52.744;15.242;2023-04-07T07:00:59;101140.49;;;16.35;32.79
70555;BME280;58104;52.744;15.242;2023-04-07T07:03:23;101140.10;;;16.05;33.33
70555;BME280;58104;52.744;15.242;2023-04-07T07:05:48;101146.98;;;16.19;33.15
70555;BME280;58104;52.744;15.242;2023-04-07T07:08:14;101143.27;;;16.44;32.67
70555;BME280;58104;52.744;15.242;2023-04-07T07:10:40;101148.07;;;16.22;32.97
70555;BME280;58104;52.744;15.242;2023-04-07T07:13:05;101149.40;;;16.36;32.89
70555;BME280;58104;52.744;15.242;2023-04-07T07:15:30;101151.26;;;16.13;33.19
70555;BME280;58104;52.744;15.242;2023-04-07T07:17:55;101153.22;;;16.11;33.37
70555;BME280;58104;52.744;15.242;2023-04-07T07:20:21;101157.50;;;16.07;33.32
70555;BME280;58104;52.744;15.242;2023-04-07T07:22:46;101161.46;;;16.08;33.49
70555;BME280;58104;52.744;15.242;2023-04-07T07:25:12;101164.70;;;16.27;33.16
70555;BME280;58104;52.744;15.242;2023-04-07T07:27:38;101165.02;;;16.35;33.01
70555;BME280;58104;52.744;15.242;2023-04-07T07:30:05;101169.23;;;16.10;33.38
70555;BME280;58104;52.744;15.242;2023-04-07T07:32:28;101170.36;;;16.01;33.35
70555;BME280;58104;52.744;15.242;2023-04-07T07:34:54;101171.41;;;16.10;33.35
70555;BME280;58104;52.744;15.242;2023-04-07T07:37:19;101169.39;;;16.24;33.15
70555;BME280;58104;52.744;15.242;2023-04-07T07:39:45;101169.15;;;16.38;33.18
70555;BME280;58104;52.744;15.242;2023-04-07T07:42:10;101173.63;;;16.21;33.32
70555;BME280;58104;52.744;15.242;2023-04-07T07:44:35;101175.48;;;16.27;33.25
70555;BME280;58104;52.744;15.242;2023-04-07T07:47:01;101171.17;;;16.40;33.08
70555;BME280;58104;52.744;15.242;2023-04-07T07:49:27;101175.09;;;16.13;33.51
70555;BME280;58104;52.744;15.242;2023-04-07T07:51:52;101173.96;;;16.19;33.42
70555;BME280;58104;52.744;15.242;2023-04-07T07:54:18;101174.83;;;16.25;33.38
70555;BME280;58104;52.744;15.242;2023-04-07T07:56:44;101176.77;;;16.19;33.47
70555;BME280;58104;52.744;15.242;2023-04-07T07:59:09;101178.40;;;16.14;33.48
70555;BME280;58104;52.744;15.242;2023-04-07T08:01:34;101174.79;;;16.29;33.37
70555;BME280;58104;52.744;15.242;2023-04-07T08:04:00;101174.83;;;16.20;33.62
70555;BME280;58104;52.744;15.242;2023-04-07T08:06:25;101174.43;;;16.23;33.49
70555;BME280;58104;52.744;15.242;2023-04-07T08:08:50;101174.58;;;16.32;33.49
70555;BME280;58104;52.744;15.242;2023-04-07T08:11:16;101173.96;;;16.23;33.65
70555;BME280;58104;52.744;15.242;2023-04-07T08:13:41;101175.40;;;16.25;33.60
70555;BME280;58104;52.744;15.242;2023-04-07T08:16:07;101182.38;;;15.78;34.47
70555;BME280;58104;52.744;15.242;2023-04-07T08:18:32;101179.39;;;15.91;34.36
70555;BME280;58104;52.744;15.242;2023-04-07T08:20:58;101183.68;;;15.77;34.79
70555;BME280;58104;52.744;15.242;2023-04-07T08:23:23;101180.77;;;15.96;34.47
70555;BME280;58104;52.744;15.242;2023-04-07T08:25:49;101182.24;;;16.10;34.21
70555;BME280;58104;52.744;15.242;2023-04-07T08:28:14;101185.39;;;16.06;34.40
70555;BME280;58104;52.744;15.242;2023-04-07T08:30:40;101186.65;;;15.98;34.36
70555;BME280;58104;52.744;15.242;2023-04-07T08:33:05;101185.33;;;16.12;34.12
70555;BME280;58104;52.744;15.242;2023-04-07T08:35:31;101188.29;;;16.25;33.92
70555;BME280;58104;52.744;15.242;2023-04-07T08:37:56;101190.11;;;16.09;34.18
70555;BME280;58104;52.744;15.242;2023-04-07T08:40:22;101191.81;;;15.99;34.46
70555;BME280;58104;52.744;15.242;2023-04-07T08:42:47;101192.90;;;15.91;34.52
70555;BME280;58104;52.744;15.242;2023-04-07T08:45:12;101192.21;;;15.95;34.49
70555;BME280;58104;52.744;15.242;2023-04-07T08:47:39;101192.86;;;16.07;34.99
70555;BME280;58104;52.744;15.242;2023-04-07T08:50:06;101193.19;;;16.25;36.17
70555;BME280;58104;52.744;15.242;2023-04-07T08:52:33;101188.34;;;16.28;36.27
70555;BME280;58104;52.744;15.242;2023-04-07T08:54:55;101187.18;;;16.62;36.15
70555;BME280;58104;52.744;15.242;2023-04-07T08:57:21;101182.20;;;16.77;36.08
70555;BME280;58104;52.744;15.242;2023-04-07T08:59:47;101182.08;;;16.60;36.64
70555;BME280;58104;52.744;15.242;2023-04-07T09:02:13;101181.01;;;16.51;36.62
70555;BME280;58104;52.744;15.242;2023-04-07T09:04:38;101184.39;;;16.22;36.93
70555;BME280;58104;52.744;15.242;2023-04-07T09:07:03;101184.29;;;16.07;36.98
70555;BME280;58104;52.744;15.242;2023-04-07T09:09:29;101184.13;;;16.53;36.28
70555;BME280;58104;52.744;15.242;2023-04-07T09:11:54;101186.46;;;16.78;36.51
70555;BME280;58104;52.744;15.242;2023-04-07T09:14:20;101186.36;;;16.92;36.35
70555;BME280;58104;52.744;15.242;2023-04-07T09:16:44;101183.70;;;16.95;35.90
70555;BME280;58104;52.744;15.242;2023-04-07T09:19:09;101184.47;;;17.03;35.97
70555;BME280;58104;52.744;15.242;2023-04-07T09:24:00;101186.22;;;16.93;36.20
70555;BME280;58104;52.744;15.242;2023-04-07T09:26:27;101182.85;;;16.96;36.25
70555;BME280;58104;52.744;15.242;2023-04-07T09:28:53;101179.57;;;16.99;36.23
70555;BME280;58104;52.744;15.242;2023-04-07T09:31:16;101178.62;;;16.91;36.29
70555;BME280;58104;52.744;15.242;2023-04-07T09:33:42;101176.75;;;16.83;36.11
70555;BME280;58104;52.744;15.242;2023-04-07T09:36:07;101171.13;;;17.00;36.14
70555;BME280;58104;52.744;15.242;2023-04-07T09:38:33;101170.01;;;16.92;36.27
70555;BME280;58104;52.744;15.242;2023-04-07T09:41:04;101168.16;;;16.97;36.34
70555;BME280;58104;52.744;15.242;2023-04-07T09:43:23;101169.71;;;17.15;36.17
70555;BME280;58104;52.744;15.242;2023-04-07T09:45:48;101172.78;;;17.18;36.21
70555;BME280;58104;52.744;15.242;2023-04-07T09:48:19;101168.24;;;17.08;36.53
70555;BME280;58104;52.744;15.242;2023-04-07T09:50:40;101168.82;;;16.96;37.56
70555;BME280;58104;52.744;15.242;2023-04-07T09:53:05;101173.87;;;16.79;45.76
70555;BME280;58104;52.744;15.242;2023-04-07T09:55:32;101170.24;;;16.76;42.42
70555;BME280;58104;52.744;15.242;2023-04-07T09:57:56;101172.00;;;16.85;41.11
70555;BME280;58104;52.744;15.242;2023-04-07T10:00:22;101172.09;;;16.83;41.27
70555;BME280;58104;52.744;15.242;2023-04-07T10:02:47;101167.61;;;16.81;40.43
70555;BME280;58104;52.744;15.242;2023-04-07T10:05:12;101169.80;;;16.86;39.65
70555;BME280;58104;52.744;15.242;2023-04-07T10:07:38;101172.76;;;17.12;39.26
70555;BME280;58104;52.744;15.242;2023-04-07T10:10:04;101172.46;;;16.96;39.81
70555;BME280;58104;52.744;15.242;2023-04-07T10:12:29;101172.72;;;16.77;39.46
70555;BME280;58104;52.744;15.242;2023-04-07T10:14:54;101172.25;;;16.95;38.98
70555;BME280;58104;52.744;15.242;2023-04-07T10:17:20;101174.39;;;17.05;38.87
70555;BME280;58104;52.744;15.242;2023-04-07T10:19:46;101169.78;;;17.14;38.28
70555;BME280;58104;52.744;15.242;2023-04-07T10:22:11;101169.15;;;17.32;37.89
70555;BME280;58104;52.744;15.242;2023-04-07T10:24:43;101170.65;;;17.37;37.61
70555;BME280;58104;52.744;15.242;2023-04-07T10:27:06;101168.51;;;17.35;37.47
70555;BME280;58104;52.744;15.242;2023-04-07T10:29:28;101169.82;;;17.39;37.48
70555;BME280;58104;52.744;15.242;2023-04-07T10:31:52;101169.41;;;17.43;37.57
70555;BME280;58104;52.744;15.242;2023-04-07T10:41:35;101169.17;;;16.79;38.31
70555;BME280;58104;52.744;15.242;2023-04-07T10:43:59;101168.90;;;16.79;37.94
70555;BME280;58104;52.744;15.242;2023-04-07T10:46:24;101168.14;;;16.87;37.36
70555;BME280;58104;52.744;15.242;2023-04-07T10:51:17;101166.97;;;17.01;36.72
70555;BME280;58104;52.744;15.242;2023-04-07T10:56:06;101171.47;;;16.80;36.63
70555;BME280;58104;52.744;15.242;2023-04-07T10:58:32;101170.54;;;16.75;36.63
70555;BME280;58104;52.744;15.242;2023-04-07T11:03:23;101172.64;;;16.68;36.45
70555;BME280;58104;52.744;15.242;2023-04-07T11:05:48;101168.92;;;16.64;36.38
70555;BME280;58104;52.744;15.242;2023-04-07T11:08:13;101163.22;;;16.55;36.43
70555;BME280;58104;52.744;15.242;2023-04-07T11:10:39;101164.23;;;16.54;36.31
70555;BME280;58104;52.744;15.242;2023-04-07T11:13:06;101165.15;;;16.69;36.08
70555;BME280;58104;52.744;15.242;2023-04-07T11:15:30;101161.12;;;16.65;36.01
70555;BME280;58104;52.744;15.242;2023-04-07T11:20:21;101161.52;;;16.84;35.50
70555;BME280;58104;52.744;15.242;2023-04-07T11:25:20;101164.67;;;16.74;35.48
70555;BME280;58104;52.744;15.242;2023-04-07T11:27:37;101160.23;;;16.90;35.23
70555;BME280;58104;52.744;15.242;2023-04-07T11:30:07;101164.71;;;16.98;35.24
70555;BME280;58104;52.744;15.242;2023-04-07T11:32:28;101164.07;;;16.72;35.56
70555;BME280;58104;52.744;15.242;2023-04-07T11:34:54;101161.56;;;16.82;35.32
70555;BME280;58104;52.744;15.242;2023-04-07T11:37:20;101159.90;;;16.73;35.49
70555;BME280;58104;52.744;15.242;2023-04-07T11:39:52;101158.99;;;16.80;35.50
70555;BME280;58104;52.744;15.242;2023-04-07T11:42:10;101157.41;;;16.72;35.46
70555;BME280;58104;52.744;15.242;2023-04-07T11:44:44;101158.90;;;16.76;35.41
70555;BME280;58104;52.744;15.242;2023-04-07T11:47:01;101155.58;;;16.92;35.41
70555;BME280;58104;52.744;15.242;2023-04-07T11:49:27;101157.48;;;16.86;35.43
70555;BME280;58104;52.744;15.242;2023-04-07T11:51:57;101158.96;;;16.79;35.57
70555;BME280;58104;52.744;15.242;2023-04-07T11:54:17;101156.50;;;16.94;35.28
70555;BME280;58104;52.744;15.242;2023-04-07T11:56:44;101155.60;;;16.56;36.13
70555;BME280;58104;52.744;15.242;2023-04-07T11:59:08;101157.79;;;16.51;36.17
70555;BME280;58104;52.744;15.242;2023-04-07T12:01:39;101153.53;;;16.32;36.32
70555;BME280;58104;52.744;15.242;2023-04-07T12:04:01;101154.49;;;16.44;36.35
70555;BME280;58104;52.744;15.242;2023-04-07T12:06:27;101150.66;;;16.38;36.46
70555;BME280;58104;52.744;15.242;2023-04-07T12:08:50;101147.52;;;16.40;36.37
70555;BME280;58104;52.744;15.242;2023-04-07T12:11:15;101145.02;;;16.58;36.23
70555;BME280;58104;52.744;15.242;2023-04-07T12:13:41;101145.53;;;16.46;36.40
70555;BME280;58104;52.744;15.242;2023-04-07T12:16:06;101144.71;;;16.24;36.85
70555;BME280;58104;52.744;15.242;2023-04-07T12:18:32;101144.35;;;16.32;36.67
70555;BME280;58104;52.744;15.242;2023-04-07T12:20:57;101147.52;;;16.39;36.57
70555;BME280;58104;52.744;15.242;2023-04-07T12:23:22;101148.45;;;16.45;36.58
70555;BME280;58104;52.744;15.242;2023-04-07T12:25:48;101148.90;;;16.41;36.54
70555;BME280;58104;52.744;15.242;2023-04-07T12:28:13;101146.41;;;16.41;36.61
70555;BME280;58104;52.744;15.242;2023-04-07T12:30:38;101149.00;;;16.29;36.81
70555;BME280;58104;52.744;15.242;2023-04-07T12:33:04;101148.54;;;16.06;37.26
70555;BME280;58104;52.744;15.242;2023-04-07T12:35:29;101149.65;;;15.57;37.48
70555;BME280;58104;52.744;15.242;2023-04-07T12:37:55;101146.80;;;15.90;37.30
70555;BME280;58104;52.744;15.242;2023-04-07T12:40:20;101147.05;;;16.28;36.91
70555;BME280;58104;52.744;15.242;2023-04-07T12:42:46;101145.31;;;16.32;36.78
70555;BME280;58104;52.744;15.242;2023-04-07T12:45:12;101146.83;;;16.44;36.63
70555;BME280;58104;52.744;15.242;2023-04-07T12:47:37;101147.87;;;16.36;36.90
70555;BME280;58104;52.744;15.242;2023-04-07T12:50:03;101149.97;;;16.22;37.18
70555;BME280;58104;52.744;15.242;2023-04-07T12:52:28;101146.23;;;16.07;37.48
70555;BME280;58104;52.744;15.242;2023-04-07T12:54:53;101147.90;;;16.24;37.11
70555;BME280;58104;52.744;15.242;2023-04-07T12:57:19;101148.07;;;16.30;36.85